Time;durP1;ratioP1;P1;durP2;ratioP2;P2;SDS_P1;SDS_P2;PMS_P1;PMS_P2;Temp;Humidity;BMP_temperature;BMP_pressure;BME280_temperature;BME280_humidity;BME280_pressure;Samples;Min_cycle;Max_cycle;Signal;HPM_P1;HPM_P2
2023/06/21 00:01:47;;;;;;;10.60;9.57;;;;;;;-144.30;79.37;84768.31;5110958;28;20233;-56
2023/06/21 00:04:13;;;;;;;10.02;9.15;;;;;;;-144.30;79.27;84762.34;5111107;28;20734;-62
2023/06/21 00:06:45;;;;;;;11.63;9.25;;;;;;;-144.30;79.27;84740.47;5110924;28;20220;-62
2023/06/21 00:09:14;;;;;;;10.82;9.95;;;;;;;-144.30;79.43;84772.28;5111361;28;20643;-56
2023/06/21 00:11:41;;;;;;;10.38;9.43;;;;;;;-144.30;79.61;84774.25;5110990;28;20233;-62
2023/06/21 00:14:08;;;;;;;9.93;9.07;;;;;;;-144.30;79.70;84816.00;5110684;28;20280;-57
2023/06/21 00:16:35;;;;;;;10.25;9.25;;;;;;;-144.30;80.21;84818.00;5110839;28;20216;-62
2023/06/21 00:19:02;;;;;;;11.38;10.30;;;;;;;-144.30;80.47;84829.91;5110604;28;20264;-62
2023/06/21 00:21:29;;;;;;;11.43;10.15;;;;;;;-144.30;80.55;84816.00;5110676;28;20202;-62
2023/06/21 00:23:56;;;;;;;13.93;10.70;;;;;;;-144.30;80.41;84814.00;5110642;28;20578;-57
2023/06/21 00:26:24;;;;;;;12.13;10.93;;;;;;;-144.30;80.20;84812.03;5110314;28;20199;-57
2023/06/21 00:28:51;;;;;;;12.65;11.20;;;;;;;-144.30;80.25;84792.16;5110509;28;20201;-57
2023/06/21 00:31:18;;;;;;;12.27;11.25;;;;;;;-144.30;80.12;84776.25;5110321;28;20198;-57
2023/06/21 00:33:45;;;;;;;12.48;11.35;;;;;;;-144.30;80.14;85177.75;5068227;28;1201859;-62
2023/06/21 00:36:12;;;;;;;13.40;11.88;;;;;;;-144.30;80.02;84831.91;5111850;28;20284;-62
2023/06/21 00:38:39;;;;;;;12.52;11.32;;;;;;;-144.30;80.28;84764.31;5111190;28;20202;-62
2023/06/21 00:41:06;;;;;;;12.95;11.02;;;;;;;-144.30;80.20;84833.88;5111168;28;20195;-57
2023/06/21 00:43:34;;;;;;;12.55;10.48;;;;;;;-144.30;80.65;84835.88;5111066;28;20198;-62
2023/06/21 00:46:02;;;;;;;13.40;11.65;;;;;;;-144.30;80.55;84847.81;5111489;28;20566;-61
2023/06/21 00:48:29;;;;;;;13.05;11.50;;;;;;;-144.30;80.38;84816.00;5111135;28;20656;-57
2023/06/21 00:50:57;;;;;;;15.52;12.05;;;;;;;-144.30;79.99;84839.84;5111167;28;20194;-57
2023/06/21 00:53:26;;;;;;;15.15;11.80;;;;;;;-144.30;80.29;84800.09;5111057;28;20730;-62
2023/06/21 00:55:53;;;;;;;15.85;11.75;;;;;;;-144.30;80.58;84839.84;5110940;28;20317;-62
2023/06/21 00:58:21;;;;;;;13.85;12.02;;;;;;;-144.30;80.12;84839.84;5110970;28;20191;-62
2023/06/21 01:00:50;;;;;;;14.88;12.95;;;;;;;-144.30;79.49;84849.78;5110974;28;20219;-61
2023/06/21 01:03:18;;;;;;;14.55;12.73;;;;;;;-144.30;78.74;84816.00;5110570;28;20202;-61
2023/06/21 01:05:52;;;;;;;13.43;12.05;;;;;;;-144.30;77.72;84837.88;5110454;28;20229;-61
2023/06/21 01:08:32;;;;;;;13.35;11.65;;;;;;;-144.30;77.43;84754.38;5110580;28;20195;-61
2023/06/21 01:11:05;;;;;;;12.75;11.20;;;;;;;-144.30;77.45;84796.13;5111039;28;20571;-62
2023/06/21 01:13:41;;;;;;;11.68;10.63;;;;;;;-144.30;77.52;84823.94;5110544;28;20198;-62
2023/06/21 01:16:14;;;;;;;12.38;11.27;;;;;;;-144.30;77.79;84863.72;5110588;28;20244;-62
2023/06/21 01:18:45;;;;;;;12.93;11.68;;;;;;;-144.30;77.93;84698.75;5110622;28;20666;-57
2023/06/21 01:21:17;;;;;;;15.00;11.40;;;;;;;-144.30;77.99;84851.78;5110607;28;20630;-62
2023/06/21 01:23:52;;;;;;;11.23;10.27;;;;;;;-144.30;77.99;84851.78;5110898;28;20195;-61
2023/06/21 01:26:32;;;;;;;11.88;10.77;;;;;;;-144.30;78.34;84855.75;5110382;28;20208;-62
2023/06/21 01:29:11;;;;;;;12.25;11.05;;;;;;;-144.30;78.67;84919.34;5110339;28;20201;-57
2023/06/21 01:31:40;;;;;;;12.25;11.05;;;;;;;-144.30;78.92;84879.59;5110142;28;20251;-61
2023/06/21 01:34:09;;;;;;;11.10;10.23;;;;;;;-144.30;78.67;84800.09;5110074;28;20321;-62
2023/06/21 01:36:38;;;;;;;11.43;9.90;;;;;;;-144.30;78.73;84859.72;5110024;28;20251;-57
2023/06/21 01:39:05;;;;;;;12.00;10.77;;;;;;;-144.30;78.74;84887.56;5110418;28;20687;-57
2023/06/21 01:41:32;;;;;;;13.77;9.75;;;;;;;-144.30;78.64;84879.59;5110062;28;20666;-57
2023/06/21 01:43:59;;;;;;;11.85;10.15;;;;;;;-144.30;78.96;84887.56;5110408;28;20589;-62
2023/06/21 01:46:28;;;;;;;10.07;9.32;;;;;;;-144.30;78.83;84889.53;5110089;28;20710;-56
2023/06/21 01:48:56;;;;;;;10.88;9.73;;;;;;;-144.30;78.16;84925.31;5110242;28;20198;-57
2023/06/21 01:51:24;;;;;;;10.52;9.55;;;;;;;-144.30;77.14;84879.59;5109873;28;20194;-62
2023/06/21 01:53:51;;;;;;;10.02;9.00;;;;;;;-144.30;77.02;84941.22;5110268;28;20561;-62
2023/06/21 01:56:19;;;;;;;10.40;9.60;;;;;;;-144.30;77.67;84915.38;5109628;28;20237;-62
2023/06/21 01:58:47;;;;;;;10.52;9.38;;;;;;;-144.30;77.94;84933.28;5109833;28;20195;-61
2023/06/21 02:01:15;;;;;;;10.02;9.30;;;;;;;-144.30;78.23;84951.16;5110010;28;20195;-57
2023/06/21 02:03:53;;;;;;;10.23;9.18;;;;;;;-144.30;78.18;84931.28;5109968;28;20534;-62
2023/06/21 02:06:21;;;;;;;10.00;9.20;;;;;;;-144.30;78.38;84975.00;5109844;28;20195;-61
2023/06/21 02:08:49;;;;;;;9.60;8.82;;;;;;;-144.30;78.79;84963.09;5109932;28;20259;-56
2023/06/21 02:11:17;;;;;;;11.30;10.30;;;;;;;-144.30;79.23;84963.09;5109693;28;20206;-56
2023/06/21 02:13:48;;;;;;;13.10;9.50;;;;;;;-144.30;80.23;84959.13;5109634;28;20203;-56
2023/06/21 02:16:15;;;;;;;10.32;9.38;;;;;;;-144.30;80.72;84984.97;5109607;28;20334;-56
2023/06/21 02:18:43;;;;;;;10.93;9.82;;;;;;;-144.30;81.04;84967.06;5109563;28;20195;-56
2023/06/21 02:21:12;;;;;;;9.40;8.70;;;;;;;-144.30;81.35;84982.97;5109367;28;20635;-57
2023/06/21 02:23:39;;;;;;;10.52;9.70;;;;;;;-144.30;81.54;85006.81;5109491;28;20199;-60
2023/06/21 02:26:06;;;;;;;10.70;9.80;;;;;;;-144.30;81.60;84998.88;5109549;28;20652;-61
2023/06/21 02:28:33;;;;;;;10.35;9.55;;;;;;;-144.30;81.35;84986.94;5109288;28;20290;-62
2023/06/21 02:31:00;;;;;;;11.68;10.50;;;;;;;-144.30;81.72;84996.88;5109396;28;20226;-61
2023/06/21 02:33:27;;;;;;;12.13;9.88;;;;;;;-144.30;81.40;84953.16;5109239;28;20726;-56
2023/06/21 02:35:56;;;;;;;10.85;9.85;;;;;;;-144.30;81.30;84961.09;5109446;28;20222;-56
2023/06/21 02:38:25;;;;;;;11.57;10.55;;;;;;;-144.30;81.15;84963.09;5109403;28;20202;-61
2023/06/21 02:40:52;;;;;;;10.50;9.60;;;;;;;-144.30;81.15;85018.75;5109437;28;20289;-61
2023/06/21 02:43:19;;;;;;;12.45;9.95;;;;;;;-144.30;81.77;84982.97;5109347;28;20287;-56
2023/06/21 02:45:46;;;;;;;10.80;10.00;;;;;;;-144.30;82.11;84986.94;5109413;28;20293;-56
2023/06/21 02:48:13;;;;;;;11.40;10.20;;;;;;;-144.30;82.45;84990.91;5109306;28;20194;-57
2023/06/21 02:50:40;;;;;;;11.80;9.93;;;;;;;-144.30;82.69;85024.72;5108807;28;20286;-57
2023/06/21 02:53:09;;;;;;;11.43;10.23;;;;;;;-144.30;83.03;84971.03;5109625;28;20278;-63
2023/06/21 02:55:36;;;;;;;11.07;9.75;;;;;;;-144.30;83.13;85050.53;5107475;28;20218;-62
2023/06/21 02:58:03;;;;;;;11.05;10.15;;;;;;;-144.30;83.17;85026.69;5109312;28;20255;-61
2023/06/21 03:00:31;;;;;;;14.88;10.63;;;;;;;-144.30;83.76;85010.78;5109097;28;20716;-62
2023/06/21 03:03:00;;;;;;;11.02;9.98;;;;;;;-144.30;83.77;85048.56;5108980;28;20237;-62
2023/06/21 03:05:27;;;;;;;11.70;10.55;;;;;;;-144.30;84.08;84949.19;5109101;28;20247;-62
2023/06/21 03:07:55;;;;;;;12.85;9.73;;;;;;;-144.30;83.84;85046.56;5109423;28;20203;-62
2023/06/21 03:10:23;;;;;;;12.25;11.05;;;;;;;-144.30;83.68;85014.78;5108981;28;20278;-62
2023/06/21 03:12:50;;;;;;;10.82;9.90;;;;;;;-144.30;83.92;85048.56;5109186;28;20195;-57
2023/06/21 03:15:17;;;;;;;14.70;10.73;;;;;;;-144.30;83.87;84996.88;5109094;28;20760;-57
2023/06/21 03:17:44;;;;;;;11.77;10.68;;;;;;;-144.30;84.09;85030.66;5108953;28;20209;-60
2023/06/21 03:20:13;;;;;;;13.95;10.98;;;;;;;-144.30;83.98;85010.78;5109162;28;20226;-56
2023/06/21 03:22:41;;;;;;;11.88;10.85;;;;;;;-144.30;83.21;84994.91;5108780;28;20281;-57
2023/06/21 03:25:09;;;;;;;12.95;11.68;;;;;;;-144.30;82.98;84996.88;5109138;28;20191;-61
2023/06/21 03:27:37;;;;;;;13.65;11.00;;;;;;;-144.30;82.83;84949.19;5110265;28;20194;-57
2023/06/21 03:30:06;;;;;;;12.20;10.23;;;;;;;-144.30;81.90;84959.13;5112773;28;20287;-62
2023/06/21 03:32:32;;;;;;;12.00;10.80;;;;;;;-144.30;81.04;84977.00;5112488;28;20237;-57
2023/06/21 03:35:00;;;;;;;11.55;10.32;;;;;;;-144.30;79.66;84951.16;5110377;28;20382;-57
2023/06/21 03:37:27;;;;;;;11.60;9.82;;;;;;;-144.30;78.67;84941.22;5112687;28;20195;-58
2023/06/21 03:39:54;;;;;;;15.82;10.13;;;;;;;-144.30;77.92;84937.25;5112923;28;20206;-61
2023/06/21 03:42:21;;;;;;;10.70;9.63;;;;;;;-144.30;76.94;84933.28;5112442;28;20583;-62
2023/06/21 03:44:50;;;;;;;10.05;9.15;;;;;;;-144.30;76.00;84899.47;5112446;28;20256;-61
2023/06/21 03:47:17;;;;;;;10.25;9.45;;;;;;;-144.30;74.96;84885.56;5112521;28;20237;-58
2023/06/21 03:49:44;;;;;;;10.02;9.23;;;;;;;-144.30;73.26;84744.44;5110779;28;20285;-57
2023/06/21 03:52:11;;;;;;;10.07;9.07;;;;;;;-144.30;72.24;84790.16;5111254;28;20282;-58
2023/06/21 03:54:38;;;;;;;10.10;9.20;;;;;;;-144.30;68.63;84668.94;5112125;28;20255;-58
2023/06/21 03:57:05;;;;;;;10.25;9.43;;;;;;;-144.30;63.13;84466.19;5112067;28;20293;-58
2023/06/21 03:59:32;;;;;;;9.15;8.13;;;;;;;-144.30;55.49;84221.75;5107173;28;20202;-58
2023/06/21 04:02:01;;;;;;;9.40;8.65;;;;;;;-144.30;51.47;84023.03;5109736;28;20599;-62
2023/06/21 04:04:27;;;;;;;9.18;8.38;;;;;;;-144.30;47.44;83874.00;5111646;28;20193;-62
2023/06/21 04:06:54;;;;;;;10.50;7.75;;;;;;;-144.30;43.92;83619.66;5111481;28;20309;-59
2023/06/21 04:09:21;;;;;;;8.85;8.18;;;;;;;-144.30;41.82;83472.66;5108906;28;20673;-59
2023/06/21 04:11:48;;;;;;;9.02;8.30;;;;;;;-144.30;39.90;83301.78;5111298;28;20191;-60
2023/06/21 04:14:15;;;;;;;8.68;7.97;;;;;;;-144.30;38.36;83146.81;5111571;28;20678;-63
2023/06/21 04:16:43;;;;;;;8.60;7.88;;;;;;;-144.30;36.82;82968.03;5111415;28;20694;-59
2023/06/21 04:19:12;;;;;;;8.32;7.75;;;;;;;-144.30;35.86;82733.63;5111516;28;20624;-59
2023/06/21 04:21:40;;;;;;;12.60;7.72;;;;;;;-144.30;34.68;82626.34;5110868;28;20187;-59
2023/06/21 04:24:07;;;;;;;8.88;7.93;;;;;;;-144.30;33.55;82435.66;5110307;28;20283;-60
2023/06/21 04:26:34;;;;;;;11.23;10.23;;;;;;;-144.30;33.13;82397.94;5111011;28;20264;-61
2023/06/21 04:29:01;;;;;;;9.60;8.88;;;;;;;-144.30;32.78;82340.34;5108990;28;20693;-59
2023/06/21 04:31:29;;;;;;;8.43;7.63;;;;;;;-144.30;32.37;82046.41;5111118;28;20194;-62
2023/06/21 04:33:56;;;;;;;10.05;7.95;;;;;;;-144.30;31.27;81990.78;5106176;28;20627;-59
2023/06/21 04:36:24;;;;;;;11.35;8.02;;;;;;;-144.30;30.78;81847.78;5105927;28;20215;-63
2023/06/21 04:38:51;;;;;;;9.10;8.30;;;;;;;-144.30;30.22;81677.00;5109587;28;20712;-63
2023/06/21 04:41:19;;;;;;;8.52;7.70;;;;;;;-144.30;29.81;81627.38;5110949;28;20190;-65
2023/06/21 04:43:46;;;;;;;8.98;8.27;;;;;;;-144.30;30.32;81730.63;5110680;28;20190;-63
2023/06/21 04:46:13;;;;;;;9.00;8.18;;;;;;;-144.30;30.09;81671.06;5110905;28;20190;-64
2023/06/21 04:48:40;;;;;;;16.55;10.98;;;;;;;-144.30;29.72;81637.31;5109411;28;20216;-63
2023/06/21 04:51:07;;;;;;;10.98;9.88;;;;;;;-144.30;29.09;81472.47;5111201;28;20286;-63
2023/06/21 04:53:35;;;;;;;8.40;7.80;;;;;;;-144.30;28.78;81401.00;5110904;28;20201;-60
2023/06/21 04:56:02;;;;;;;23.85;9.30;;;;;;;-144.30;29.07;81395.03;5111366;28;20221;-60
2023/06/21 04:58:35;;;;;;;15.02;9.00;;;;;;;-144.30;29.00;81329.53;5111044;28;20593;-59
2023/06/21 05:01:02;;;;;;;8.77;8.07;;;;;;;-144.30;28.54;81299.72;5111098;28;20250;-59
2023/06/21 05:03:32;;;;;;;9.20;8.30;;;;;;;-144.30;28.44;81252.09;5110944;28;20198;-58
2023/06/21 05:05:59;;;;;;;10.27;9.32;;;;;;;-144.30;28.29;81218.31;5110961;28;20659;-59
2023/06/21 05:08:26;;;;;;;9.13;8.35;;;;;;;-144.30;28.64;81222.28;5110726;28;20200;-63
2023/06/21 05:10:54;;;;;;;9.68;8.80;;;;;;;-144.30;28.73;81287.81;5110730;28;20190;-60
2023/06/21 05:13:21;;;;;;;9.25;8.35;;;;;;;-144.30;28.85;81303.72;5110636;28;20202;-64
2023/06/21 05:15:48;;;;;;;10.52;8.07;;;;;;;-144.30;28.70;81269.94;5110591;28;20324;-62
2023/06/21 05:18:15;;;;;;;8.55;7.60;;;;;;;-144.30;28.65;81200.47;5110517;28;20566;-64
2023/06/21 05:20:42;;;;;;;9.98;8.45;;;;;;;-144.30;28.37;81134.94;5110637;28;20657;-60
2023/06/21 05:23:09;;;;;;;8.73;7.88;;;;;;;-144.30;28.43;81196.50;5110669;28;20204;-60
2023/06/21 05:25:36;;;;;;;8.30;7.60;;;;;;;-144.30;28.74;81256.06;5109696;28;20206;-59
2023/06/21 05:28:04;;;;;;;8.52;7.70;;;;;;;-144.30;28.06;81087.28;5111407;28;20190;-64
2023/06/21 05:30:31;;;;;;;9.00;7.72;;;;;;;-144.30;27.82;80946.31;5111021;28;20202;-62
2023/06/21 05:32:58;;;;;;;9.10;8.02;;;;;;;-144.30;27.86;81045.59;5110767;28;20193;-65
2023/06/21 05:35:25;;;;;;;8.05;7.30;;;;;;;-144.30;28.20;81113.09;5105536;28;21690;-63
2023/06/21 05:37:53;;;;;;;10.57;8.45;;;;;;;-144.30;27.96;81011.84;5107955;28;20216;-64
2023/06/21 05:40:20;;;;;;;7.97;7.47;;;;;;;-144.30;28.13;81117.06;5110421;28;20222;-60
2023/06/21 05:42:46;;;;;;;8.93;8.05;;;;;;;-144.30;28.61;81329.53;5110309;28;20666;-64
2023/06/21 05:45:15;;;;;;;8.68;8.15;;;;;;;-144.30;29.01;81321.56;5110335;28;20285;-61
2023/06/21 05:47:42;;;;;;;8.63;7.47;;;;;;;-144.30;28.75;81307.69;5110533;28;20194;-60
2023/06/21 05:50:10;;;;;;;9.00;7.97;;;;;;;-144.30;28.82;81232.22;5110548;28;20220;-60
2023/06/21 05:52:37;;;;;;;7.65;7.05;;;;;;;-144.30;28.76;81200.47;5110440;28;20552;-59
2023/06/21 05:55:04;;;;;;;8.60;7.78;;;;;;;-144.30;29.00;81287.81;5110825;28;20194;-59
2023/06/21 05:57:31;;;;;;;8.20;7.43;;;;;;;-144.30;28.61;81117.06;5110384;28;20701;-61
2023/06/21 05:59:58;;;;;;;8.30;7.55;;;;;;;-144.30;28.80;81232.22;5110457;28;20207;-63
2023/06/21 06:02:26;;;;;;;8.52;7.75;;;;;;;-144.30;28.71;81303.72;5110321;28;20204;-65
2023/06/21 06:04:54;;;;;;;8.57;8.07;;;;;;;-144.30;28.83;81168.69;5110358;28;20194;-65
2023/06/21 06:07:23;;;;;;;9.43;7.70;;;;;;;-144.30;28.54;81204.44;5110596;28;20190;-58
2023/06/21 06:09:50;;;;;;;9.65;8.50;;;;;;;-144.30;28.86;81339.44;5110499;28;20190;-64
2023/06/21 06:12:17;;;;;;;9.27;8.48;;;;;;;-144.30;29.26;81319.59;5109769;28;20202;-64
2023/06/21 06:14:44;;;;;;;9.65;8.10;;;;;;;-144.30;29.15;81389.09;5109441;28;20194;-64
2023/06/21 06:17:11;;;;;;;10.15;9.13;;;;;;;-144.30;29.40;81383.13;5109579;28;20532;-63
2023/06/21 06:19:39;;;;;;;9.43;7.93;;;;;;;-144.30;29.68;81494.31;5109895;28;20604;-64
2023/06/21 06:22:06;;;;;;;8.70;8.10;;;;;;;-144.30;29.24;81528.09;5109845;28;20580;-64
2023/06/21 06:24:33;;;;;;;8.95;8.15;;;;;;;-144.30;29.82;81607.50;5103571;28;22278;-60
2023/06/21 06:27:00;;;;;;;8.60;7.80;;;;;;;-144.30;29.79;81764.38;5088716;28;20195;-58
2023/06/21 06:29:27;;;;;;;10.73;7.95;;;;;;;-144.30;30.20;81732.63;5088629;28;20588;-58
2023/06/21 06:31:54;;;;;;;8.80;8.15;;;;;;;-144.30;30.31;81740.56;5089362;28;20663;-64
2023/06/21 06:34:21;;;;;;;9.85;8.27;;;;;;;-144.30;29.94;81730.63;5089006;28;20714;-58
2023/06/21 06:36:49;;;;;;;11.02;8.52;;;;;;;-144.30;30.39;81794.19;5089105;28;20229;-60
2023/06/21 06:39:16;;;;;;;9.90;7.95;;;;;;;-144.30;30.66;81951.06;5089182;28;20195;-58
2023/06/21 06:41:43;;;;;;;8.95;7.93;;;;;;;-144.30;30.84;81970.94;5088726;28;20693;-59
2023/06/21 06:44:10;;;;;;;9.10;8.25;;;;;;;-144.30;30.90;81621.41;5089553;28;20660;-59
2023/06/21 06:46:37;;;;;;;9.23;8.30;;;;;;;-144.30;31.00;81996.75;5089301;28;20221;-59
2023/06/21 06:49:04;;;;;;;9.07;8.50;;;;;;;-144.30;30.55;81962.97;5088993;28;20201;-64
2023/06/21 06:51:30;;;;;;;9.80;7.93;;;;;;;-144.30;30.49;81945.09;5089374;28;21084;-63
2023/06/21 06:53:59;;;;;;;9.07;8.35;;;;;;;-144.30;31.13;82070.22;5089038;28;20195;-59
2023/06/21 06:56:25;;;;;;;9.63;8.75;;;;;;;-144.30;31.49;82105.97;5088610;28;20230;-63
2023/06/21 06:58:52;;;;;;;8.75;7.90;;;;;;;-144.30;31.29;82109.94;5088901;28;20195;-63
2023/06/21 07:01:20;;;;;;;8.25;7.47;;;;;;;-144.30;30.64;81968.94;5089072;28;20203;-63
2023/06/21 07:03:47;;;;;;;8.85;8.13;;;;;;;-144.30;30.87;81992.78;5092357;28;20567;-63
2023/06/21 07:06:14;;;;;;;8.13;7.53;;;;;;;-144.30;31.03;81867.66;5092812;28;20202;-63
2023/06/21 07:08:44;;;;;;;8.80;7.70;;;;;;;-144.30;31.49;82177.47;5092927;28;20689;-58
2023/06/21 07:11:12;;;;;;;8.38;7.88;;;;;;;-144.30;31.18;82145.69;5092765;28;20214;-58
2023/06/21 07:13:39;;;;;;;8.18;7.45;;;;;;;-144.30;30.71;82113.91;5092448;28;20202;-59
2023/06/21 07:16:06;;;;;;;10.10;7.45;;;;;;;-144.30;30.59;82092.06;5092672;28;20221;-63
2023/06/21 07:18:33;;;;;;;7.93;7.22;;;;;;;-144.30;30.67;82032.50;5092553;28;20655;-63
2023/06/21 07:21:02;;;;;;;7.88;7.30;;;;;;;-144.30;30.47;82086.13;5092692;28;20643;-64
2023/06/21 07:23:29;;;;;;;8.07;7.45;;;;;;;-144.30;30.67;82062.28;5092345;28;20191;-59
2023/06/21 07:25:56;;;;;;;7.75;7.13;;;;;;;-144.30;30.37;82052.34;5092655;28;20644;-59
2023/06/21 07:28:25;;;;;;;8.18;7.38;;;;;;;-144.30;29.94;81992.78;5092446;28;20286;-59
2023/06/21 07:30:52;;;;;;;10.55;7.30;;;;;;;-144.30;29.98;81974.91;5092386;28;20195;-59
2023/06/21 07:33:18;;;;;;;7.63;7.03;;;;;;;-144.30;29.49;81831.91;5092299;28;20659;-59
2023/06/21 07:35:45;;;;;;;10.63;7.20;;;;;;;-144.30;29.27;81651.19;5092144;28;20221;-60
2023/06/21 07:38:12;;;;;;;9.23;8.30;;;;;;;-144.30;29.22;81740.56;5094694;28;20203;-60
2023/06/21 07:40:39;;;;;;;8.35;7.65;;;;;;;-144.30;29.66;81847.78;5106167;28;20234;-63
2023/06/21 07:43:06;;;;;;;9.90;7.68;;;;;;;-144.30;29.39;81790.22;5111371;28;20221;-63
2023/06/21 07:45:34;;;;;;;7.45;6.93;;;;;;;-144.30;29.34;81655.19;5112268;28;20206;-59
2023/06/21 07:48:01;;;;;;;7.32;6.53;;;;;;;-144.30;29.02;81748.50;5112473;28;20213;-63
2023/06/21 07:50:28;;;;;;;8.63;7.65;;;;;;;-144.30;29.14;81673.03;5111769;28;20191;-58
2023/06/21 07:52:55;;;;;;;8.70;7.63;;;;;;;-144.30;29.14;81645.25;5112456;28;20217;-64
2023/06/21 07:55:22;;;;;;;7.88;7.18;;;;;;;-144.30;29.11;81641.28;5112262;28;20190;-64
2023/06/21 07:57:49;;;;;;;7.80;7.10;;;;;;;-144.30;29.03;81557.88;5112396;28;20705;-63
2023/06/21 08:00:16;;;;;;;8.55;7.82;;;;;;;-144.30;28.57;81434.75;5112279;28;20202;-59
2023/06/21 08:02:45;;;;;;;10.63;9.55;;;;;;;-144.30;28.19;81351.34;5112231;28;20205;-59
2023/06/21 08:05:13;;;;;;;7.38;6.88;;;;;;;-144.30;27.96;81416.88;5112138;28;20685;-64
2023/06/21 08:07:40;;;;;;;6.85;6.40;;;;;;;-144.30;28.02;81399.00;5112203;28;20658;-64
2023/06/21 08:10:08;;;;;;;8.23;7.28;;;;;;;-144.30;27.79;81335.47;5112090;28;20288;-64
2023/06/21 08:12:35;;;;;;;7.47;6.90;;;;;;;-144.30;27.88;81172.66;5111803;28;20665;-59
2023/06/21 08:15:02;;;;;;;10.85;7.35;;;;;;;-144.30;27.89;81113.09;5111852;28;20202;-59
2023/06/21 08:17:29;;;;;;;7.82;6.97;;;;;;;-144.30;27.56;81166.69;5108233;28;20241;-59
2023/06/21 08:19:58;;;;;;;9.30;7.43;;;;;;;-144.30;27.23;81117.06;5089851;28;20213;-59
2023/06/21 08:22:25;;;;;;;8.70;7.85;;;;;;;-144.30;27.28;81085.31;5090901;28;20195;-56
2023/06/21 08:24:52;;;;;;;7.97;6.85;;;;;;;-144.30;27.25;81049.56;5091103;28;20194;-56
2023/06/21 08:27:19;;;;;;;7.47;6.97;;;;;;;-144.30;27.09;81037.66;5091214;28;20191;-58
2023/06/21 08:29:47;;;;;;;7.28;6.88;;;;;;;-144.30;27.23;81037.66;5090868;28;20194;-57
2023/06/21 08:32:14;;;;;;;7.28;6.88;;;;;;;-144.30;26.73;81027.72;5091291;28;20194;-57
2023/06/21 08:34:41;;;;;;;7.20;6.72;;;;;;;-144.30;26.75;80970.16;5091294;28;20235;-56
2023/06/21 08:37:09;;;;;;;7.80;6.97;;;;;;;-144.30;26.60;80878.81;5091584;28;20316;-57
2023/06/21 08:39:36;;;;;;;6.70;6.07;;;;;;;-144.30;26.55;81123.03;5090893;28;20285;-64
2023/06/21 08:42:03;;;;;;;6.63;6.22;;;;;;;-144.30;26.50;81212.38;5091134;28;20210;-63
2023/06/21 08:44:30;;;;;;;6.55;6.15;;;;;;;-144.30;26.67;81311.66;5090744;28;20209;-63
2023/06/21 08:47:00;;;;;;;7.55;6.97;;;;;;;-144.30;27.03;81363.28;5090712;28;20186;-63
2023/06/21 08:49:30;;;;;;;7.78;6.30;;;;;;;-144.30;26.88;81526.09;5090954;28;20281;-56
2023/06/21 08:52:00;;;;;;;7.10;6.20;;;;;;;-144.30;27.03;81528.09;5091008;28;20698;-57
2023/06/21 08:54:31;;;;;;;7.03;6.47;;;;;;;-144.30;27.23;81625.38;5090852;28;20198;-57
2023/06/21 08:57:03;;;;;;;6.93;6.35;;;;;;;-144.30;27.01;81540.00;5090681;28;20229;-57
2023/06/21 08:59:39;;;;;;;6.40;5.93;;;;;;;-144.30;26.47;81565.81;5090431;28;20240;-58
2023/06/21 09:02:16;;;;;;;7.28;5.60;;;;;;;-144.30;26.51;81573.75;5090897;28;20217;-63
2023/06/21 09:04:48;;;;;;;6.20;5.80;;;;;;;-144.30;26.63;81561.84;5090378;28;20202;-56
2023/06/21 09:07:15;;;;;;;6.43;5.85;;;;;;;-144.30;26.42;81502.28;5090383;28;20205;-62
2023/06/21 09:09:45;;;;;;;6.00;5.63;;;;;;;-144.30;26.46;81581.69;5090187;28;20198;-63
2023/06/21 09:12:14;;;;;;;5.55;5.25;;;;;;;-144.30;26.36;81657.16;5090364;28;20191;-56
2023/06/21 09:14:41;;;;;;;6.47;6.10;;;;;;;-144.30;26.44;81651.19;5090031;28;20203;-57
2023/06/21 09:17:11;;;;;;;6.00;5.70;;;;;;;-144.30;27.09;81762.41;5091684;28;20682;-63
2023/06/21 09:19:38;;;;;;;5.97;5.57;;;;;;;-144.30;27.02;81831.91;5109546;28;20677;-64
2023/06/21 09:22:05;;;;;;;6.82;6.32;;;;;;;-144.30;26.80;81760.41;5110420;28;20191;-63
2023/06/21 09:24:32;;;;;;;6.03;5.68;;;;;;;-144.30;26.02;81639.28;5105441;28;20195;-64
2023/06/21 09:27:01;;;;;;;4.88;4.50;;;;;;;-144.30;25.40;81677.00;5108547;28;20186;-64
2023/06/21 09:29:28;;;;;;;5.30;5.10;;;;;;;-144.30;25.80;81665.09;5107545;28;20643;-57
2023/06/21 09:31:55;;;;;;;5.70;5.20;;;;;;;-144.30;25.41;81645.25;5110153;28;20701;-57
2023/06/21 09:34:21;;;;;;;4.40;4.20;;;;;;;-144.30;25.17;81645.25;5110222;27;20241;-56
2023/06/21 09:36:48;;;;;;;4.30;4.10;;;;;;;-144.30;24.84;81686.94;5110059;28;20664;-57
2023/06/21 09:39:16;;;;;;;6.38;4.85;;;;;;;-144.30;24.78;81621.41;5110846;28;20198;-57
2023/06/21 09:41:44;;;;;;;5.05;4.75;;;;;;;-144.30;25.35;81583.69;5110066;28;20281;-57
2023/06/21 09:44:12;;;;;;;5.68;5.22;;;;;;;-144.30;25.47;81756.44;5110268;28;20202;-57
2023/06/21 09:46:40;;;;;;;5.10;4.80;;;;;;;-144.30;25.81;81744.53;5110016;28;20205;-57
2023/06/21 09:49:08;;;;;;;5.53;5.00;;;;;;;-144.30;26.08;81681.00;5110068;28;20194;-56
2023/06/21 09:51:41;;;;;;;7.90;5.93;;;;;;;-144.30;25.38;81569.78;5109839;28;20202;-56
2023/06/21 09:54:08;;;;;;;5.50;5.20;;;;;;;-144.30;25.27;81585.66;5110072;28;20204;-56
2023/06/21 09:56:37;;;;;;;4.90;4.35;;;;;;;-144.30;25.11;82278.75;5109644;28;20202;-56
2023/06/21 09:59:04;;;;;;;6.05;5.20;;;;;;;-144.30;25.44;81625.38;5109935;27;20240;-58
2023/06/21 10:01:39;;;;;;;5.43;4.93;;;;;;;-144.30;25.04;81615.47;5109644;28;20444;-59
2023/06/21 10:04:14;;;;;;;5.88;4.90;;;;;;;-144.30;25.00;81682.97;5109859;28;20640;-66
2023/06/21 10:06:48;;;;;;;5.05;4.75;;;;;;;-144.30;25.02;81681.00;5109814;28;20562;-66
2023/06/21 10:09:15;;;;;;;5.40;5.00;;;;;;;-144.30;25.33;81569.78;5109825;28;20324;-66
2023/06/21 10:11:43;;;;;;;5.00;4.55;;;;;;;-144.30;25.06;81538.00;5109593;28;20198;-65
2023/06/21 10:14:19;;;;;;;4.80;4.50;;;;;;;-144.30;25.61;81720.69;5109719;28;20258;-67
2023/06/21 10:16:50;;;;;;;4.93;4.72;;;;;;;-144.30;25.63;81875.59;5109569;28;20197;-69
2023/06/21 10:19:17;;;;;;;5.05;4.63;;;;;;;-144.30;25.66;81903.41;5109640;28;20190;-58
2023/06/21 10:21:44;;;;;;;4.95;4.75;;;;;;;-144.30;27.75;81921.28;5109504;28;20202;-66
2023/06/21 10:24:14;;;;;;;5.40;4.95;;;;;;;-144.30;26.50;81935.19;5109576;28;20198;-65
2023/06/21 10:26:44;;;;;;;5.75;5.28;;;;;;;-144.30;27.96;82143.72;5109683;28;20623;-56
2023/06/21 10:29:13;;;;;;;5.35;5.05;;;;;;;-144.30;27.22;82193.38;5109713;28;20209;-58
2023/06/21 10:31:44;;;;;;;5.35;4.95;;;;;;;-144.30;27.35;82272.81;5107141;28;20198;-57
2023/06/21 10:34:20;;;;;;;5.57;5.20;;;;;;;-144.30;28.08;82312.53;5103226;28;20276;-58
2023/06/21 10:36:51;;;;;;;5.65;5.25;;;;;;;-144.30;27.43;82407.88;5110621;28;20661;-66
2023/06/21 10:39:20;;;;;;;5.32;5.03;;;;;;;-144.30;27.57;82415.81;5113482;28;20577;-66
2023/06/21 10:41:47;;;;;;;8.55;5.60;;;;;;;-144.30;27.81;82449.56;5113032;28;20187;-66
2023/06/21 10:44:17;;;;;;;5.97;5.43;;;;;;;-144.30;27.79;82445.59;5113190;28;20198;-66
2023/06/21 10:46:45;;;;;;;5.40;4.97;;;;;;;-144.30;28.42;82455.53;5112938;28;20208;-66
2023/06/21 10:49:15;;;;;;;5.68;5.20;;;;;;;-144.30;27.62;82491.28;5112971;28;20189;-66
2023/06/21 10:51:43;;;;;;;5.88;5.30;;;;;;;-144.30;27.69;82507.19;5112502;28;20657;-67
2023/06/21 10:54:11;;;;;;;5.00;4.72;;;;;;;-144.30;27.57;82507.19;5110358;28;20199;-65
2023/06/21 10:56:40;;;;;;;6.57;5.50;;;;;;;-144.30;27.53;82441.63;5112465;28;20193;-65
2023/06/21 10:59:06;;;;;;;5.03;4.70;;;;;;;-144.30;27.68;82519.09;5112496;28;20697;-66
2023/06/21 11:01:33;;;;;;;5.05;4.70;;;;;;;-144.30;27.43;82505.19;5112535;28;20589;-60
2023/06/21 11:04:01;;;;;;;5.47;5.03;;;;;;;-144.30;28.33;82523.06;5112312;28;20200;-58
2023/06/21 11:06:33;;;;;;;5.72;5.22;;;;;;;-144.30;28.05;82552.88;5111938;28;20191;-66
2023/06/21 11:09:08;;;;;;;6.10;5.40;;;;;;;-144.30;28.68;82533.00;5112458;28;20224;-59
2023/06/21 11:11:37;;;;;;;6.13;5.72;;;;;;;-144.30;28.91;82576.69;5112234;28;20205;-65
2023/06/21 11:14:04;;;;;;;6.38;5.88;;;;;;;-144.30;28.98;82515.13;5112623;28;20646;-65
2023/06/21 11:16:33;;;;;;;6.07;5.60;;;;;;;-144.30;29.00;82527.03;5109531;28;20282;-59